Terminal Aerodrome Forecast
Issued by NWS

Current Version | Previous Version | Graphics & Text | Print | Product List | Glossary On
Versions: 1 2 3 4 5 6 7 8 9 10 11 12 13 14 15 16 17 18 19 20 21 22 23
000
FTUS41 KRLX 250246 AAA
TAFCKB
TAF AMD
KCKB 250246Z 2503/2524 VRB04KT P6SM SCT250
     FM250800 00000KT 5SM BR FEW140
     FM251000 00000KT 1/4SM FG OVC001
     FM251200 00000KT 5SM BR SCT005
     FM251300 24006KT P6SM SCT250=

USA.gov is the U.S. government's official web portal to all federal, state and local government web resources and services.